sensor_id;sensor_type;location;lat;lon;timestamp;temperature;humidity
3874;DHT22;1952;50.872;6.692;2022-08-18T00:30:38;18.10;99.90
3874;DHT22;1952;50.872;6.692;2022-08-18T00:33:07;18.20;99.90
3874;DHT22;1952;50.872;6.692;2022-08-18T00:35:36;18.40;99.90
3874;DHT22;1952;50.872;6.692;2022-08-18T00:38:09;18.60;99.90
3874;DHT22;1952;50.872;6.692;2022-08-18T00:40:45;18.60;99.90
3874;DHT22;1952;50.872;6.692;2022-08-18T00:43:24;18.70;99.90
3874;DHT22;1952;50.872;6.692;2022-08-18T00:45:55;18.80;99.90
3874;DHT22;1952;50.872;6.692;2022-08-18T00:48:24;18.80;99.90
3874;DHT22;1952;50.872;6.692;2022-08-18T00:50:54;18.80;99.90
3874;DHT22;1952;50.872;6.692;2022-08-18T00:53:32;18.80;99.90
3874;DHT22;1952;50.872;6.692;2022-08-18T00:56:04;18.80;99.90
3874;DHT22;1952;50.872;6.692;2022-08-18T00:58:37;18.70;99.90
3874;DHT22;1952;50.872;6.692;2022-08-18T01:01:13;18.60;99.90
3874;DHT22;1952;50.872;6.692;2022-08-18T01:03:43;18.50;99.90
3874;DHT22;1952;50.872;6.692;2022-08-18T01:06:24;18.20;99.90
3874;DHT22;1952;50.872;6.692;2022-08-18T01:08:54;18.00;99.90
3874;DHT22;1952;50.872;6.692;2022-08-18T01:11:23;17.80;99.90
3874;DHT22;1952;50.872;6.692;2022-08-18T01:13:51;17.70;99.90
3874;DHT22;1952;50.872;6.692;2022-08-18T01:16:26;17.50;99.90
3874;DHT22;1952;50.872;6.692;2022-08-18T01:22:20;17.20;99.90
3874;DHT22;1952;50.872;6.692;2022-08-18T01:24:51;17.10;99.90
3874;DHT22;1952;50.872;6.692;2022-08-18T01:30:15;16.80;99.90
3874;DHT22;1952;50.872;6.692;2022-08-18T01:35:14;16.70;99.90
3874;DHT22;1952;50.872;6.692;2022-08-18T01:40:16;17.00;99.90
3874;DHT22;1952;50.872;6.692;2022-08-18T01:48:02;16.60;99.90
3874;DHT22;1952;50.872;6.692;2022-08-18T01:50:36;16.60;99.90
3874;DHT22;1952;50.872;6.692;2022-08-18T01:53:06;16.60;99.90
3874;DHT22;1952;50.872;6.692;2022-08-18T01:55:37;16.90;99.90
3874;DHT22;1952;50.872;6.692;2022-08-18T01:58:11;17.10;99.90
3874;DHT22;1952;50.872;6.692;2022-08-18T02:03:13;17.30;99.90
3874;DHT22;1952;50.872;6.692;2022-08-18T02:05:44;17.30;99.90
3874;DHT22;1952;50.872;6.692;2022-08-18T02:10:43;17.20;99.90
3874;DHT22;1952;50.872;6.692;2022-08-18T02:13:11;17.30;99.90
3874;DHT22;1952;50.872;6.692;2022-08-18T02:18:14;17.50;99.90
3874;DHT22;1952;50.872;6.692;2022-08-18T02:21:07;17.50;99.90
3874;DHT22;1952;50.872;6.692;2022-08-18T02:23:36;17.40;99.90
3874;DHT22;1952;50.872;6.692;2022-08-18T02:26:07;17.40;99.90
3874;DHT22;1952;50.872;6.692;2022-08-18T02:28:41;17.40;99.90
3874;DHT22;1952;50.872;6.692;2022-08-18T02:31:16;17.20;99.90
3874;DHT22;1952;50.872;6.692;2022-08-18T02:33:45;17.00;99.90
3874;DHT22;1952;50.872;6.692;2022-08-18T02:41:24;16.70;99.90
3874;DHT22;1952;50.872;6.692;2022-08-18T02:43:56;16.70;99.90
3874;DHT22;1952;50.872;6.692;2022-08-18T02:46:24;16.80;99.90
3874;DHT22;1952;50.872;6.692;2022-08-18T02:51:30;17.00;99.90
3874;DHT22;1952;50.872;6.692;2022-08-18T02:56:29;17.20;99.90
3874;DHT22;1952;50.872;6.692;2022-08-18T02:59:04;17.10;99.90
3874;DHT22;1952;50.872;6.692;2022-08-18T03:04:10;17.20;99.90
3874;DHT22;1952;50.872;6.692;2022-08-18T03:09:07;16.90;99.90
3874;DHT22;1952;50.872;6.692;2022-08-18T03:11:37;16.70;99.90
3874;DHT22;1952;50.872;6.692;2022-08-18T03:14:05;16.60;99.90
3874;DHT22;1952;50.872;6.692;2022-08-18T03:19:11;16.90;99.90
3874;DHT22;1952;50.872;6.692;2022-08-18T03:26:41;16.60;99.90
3874;DHT22;1952;50.872;6.692;2022-08-18T03:31:43;16.30;99.90
3874;DHT22;1952;50.872;6.692;2022-08-18T03:34:16;16.10;99.90
3874;DHT22;1952;50.872;6.692;2022-08-18T03:36:50;15.90;99.90
3874;DHT22;1952;50.872;6.692;2022-08-18T03:46:57;15.90;99.90
3874;DHT22;1952;50.872;6.692;2022-08-18T04:02:03;16.00;99.90
3874;DHT22;1952;50.872;6.692;2022-08-18T04:29:48;16.90;99.90
3874;DHT22;1952;50.872;6.692;2022-08-18T04:44:41;17.30;99.90
3874;DHT22;1952;50.872;6.692;2022-08-18T04:55:07;17.50;99.90
3874;DHT22;1952;50.872;6.692;2022-08-18T04:57:35;17.50;99.90
3874;DHT22;1952;50.872;6.692;2022-08-18T06:33:48;17.20;99.90
3874;DHT22;1952;50.872;6.692;2022-08-18T06:36:38;17.40;99.90
3874;DHT22;1952;50.872;6.692;2022-08-18T06:39:22;17.40;99.90
3874;DHT22;1952;50.872;6.692;2022-08-18T06:41:52;17.60;99.90
3874;DHT22;1952;50.872;6.692;2022-08-18T06:44:28;17.90;99.90
3874;DHT22;1952;50.872;6.692;2022-08-18T06:46:59;18.10;99.90
3874;DHT22;1952;50.872;6.692;2022-08-18T06:49:40;18.30;99.90
3874;DHT22;1952;50.872;6.692;2022-08-18T06:52:20;18.60;99.90
3874;DHT22;1952;50.872;6.692;2022-08-18T06:54:50;18.80;99.90
3874;DHT22;1952;50.872;6.692;2022-08-18T06:57:28;18.80;99.90
3874;DHT22;1952;50.872;6.692;2022-08-18T07:00:00;19.20;99.90
3874;DHT22;1952;50.872;6.692;2022-08-18T07:03:00;19.30;99.90
3874;DHT22;1952;50.872;6.692;2022-08-18T07:05:35;19.40;99.90
3874;DHT22;1952;50.872;6.692;2022-08-18T07:08:28;19.50;99.90
3874;DHT22;1952;50.872;6.692;2022-08-18T07:11:14;19.50;99.90
3874;DHT22;1952;50.872;6.692;2022-08-18T07:13:50;19.60;99.90
3874;DHT22;1952;50.872;6.692;2022-08-18T07:16:34;19.60;99.90
3874;DHT22;1952;50.872;6.692;2022-08-18T07:19:06;19.60;99.90
3874;DHT22;1952;50.872;6.692;2022-08-18T07:21:43;19.50;99.90
3874;DHT22;1952;50.872;6.692;2022-08-18T07:24:24;19.50;99.90
3874;DHT22;1952;50.872;6.692;2022-08-18T07:27:10;19.50;99.90
3874;DHT22;1952;50.872;6.692;2022-08-18T07:29:58;19.60;99.90
3874;DHT22;1952;50.872;6.692;2022-08-18T07:32:45;19.70;99.90
3874;DHT22;1952;50.872;6.692;2022-08-18T07:35:33;19.70;99.90
3874;DHT22;1952;50.872;6.692;2022-08-18T07:38:16;19.70;99.90
3874;DHT22;1952;50.872;6.692;2022-08-18T07:41:11;22.90;99.90
3874;DHT22;1952;50.872;6.692;2022-08-18T07:43:56;19.60;99.90
3874;DHT22;1952;50.872;6.692;2022-08-18T07:46:34;19.70;99.90
3874;DHT22;1952;50.872;6.692;2022-08-18T07:51:56;19.90;99.90
3874;DHT22;1952;50.872;6.692;2022-08-18T08:00:20;20.40;99.90
3874;DHT22;1952;50.872;6.692;2022-08-18T08:16:35;20.40;99.90
3874;DHT22;1952;50.872;6.692;2022-08-18T08:19:15;20.50;99.90
3874;DHT22;1952;50.872;6.692;2022-08-18T08:40:05;20.60;99.90
3874;DHT22;1952;50.872;6.692;2022-08-18T09:00:38;20.50;99.90
3874;DHT22;1952;50.872;6.692;2022-08-18T09:03:21;20.70;99.90
3874;DHT22;1952;50.872;6.692;2022-08-18T09:06:02;20.80;99.90
3874;DHT22;1952;50.872;6.692;2022-08-18T09:08:44;20.80;99.90
3874;DHT22;1952;50.872;6.692;2022-08-18T09:11:46;20.80;99.90
3874;DHT22;1952;50.872;6.692;2022-08-18T09:14:39;20.80;99.90
3874;DHT22;1952;50.872;6.692;2022-08-18T09:17:37;20.90;99.90
3874;DHT22;1952;50.872;6.692;2022-08-18T09:20:23;20.90;99.90
3874;DHT22;1952;50.872;6.692;2022-08-18T09:23:00;21.00;99.90
3874;DHT22;1952;50.872;6.692;2022-08-18T09:25:47;21.10;99.90
3874;DHT22;1952;50.872;6.692;2022-08-18T09:33:53;21.50;99.90
3874;DHT22;1952;50.872;6.692;2022-08-18T09:36:39;18.90;99.90
3874;DHT22;1952;50.872;6.692;2022-08-18T09:39:21;21.80;99.90
3874;DHT22;1952;50.872;6.692;2022-08-18T09:42:31;21.90;99.90
3874;DHT22;1952;50.872;6.692;2022-08-18T09:45:53;22.30;99.90
3874;DHT22;1952;50.872;6.692;2022-08-18T09:48:29;22.50;99.90
3874;DHT22;1952;50.872;6.692;2022-08-18T09:51:30;22.50;99.90
3874;DHT22;1952;50.872;6.692;2022-08-18T09:54:12;22.90;99.90
3874;DHT22;1952;50.872;6.692;2022-08-18T09:57:17;22.90;99.90
3874;DHT22;1952;50.872;6.692;2022-08-18T10:00:16;23.30;99.90
3874;DHT22;1952;50.872;6.692;2022-08-18T10:06:17;23.80;96.60
3874;DHT22;1952;50.872;6.692;2022-08-18T10:12:17;24.30;87.50
3874;DHT22;1952;50.872;6.692;2022-08-18T10:15:15;24.40;72.00
3874;DHT22;1952;50.872;6.692;2022-08-18T10:18:34;24.90;55.00
3874;DHT22;1952;50.872;6.692;2022-08-18T10:21:10;25.60;31.80
3874;DHT22;1952;50.872;6.692;2022-08-18T10:23:55;25.90;1.00
3874;DHT22;1952;50.872;6.692;2022-08-18T10:27:11;26.10;1.00
3874;DHT22;1952;50.872;6.692;2022-08-18T10:30:04;26.40;1.00
3874;DHT22;1952;50.872;6.692;2022-08-18T10:32:43;26.80;1.00
3874;DHT22;1952;50.872;6.692;2022-08-18T10:35:55;27.10;1.00
3874;DHT22;1952;50.872;6.692;2022-08-18T10:38:50;27.10;99.90
3874;DHT22;1952;50.872;6.692;2022-08-18T10:41:25;26.80;1.00
3874;DHT22;1952;50.872;6.692;2022-08-18T10:43:59;26.90;1.00
3874;DHT22;1952;50.872;6.692;2022-08-18T10:46:40;26.90;1.00
3874;DHT22;1952;50.872;6.692;2022-08-18T10:49:19;26.70;1.00
3874;DHT22;1952;50.872;6.692;2022-08-18T10:52:19;26.50;1.00
3874;DHT22;1952;50.872;6.692;2022-08-18T10:55:11;25.60;1.00
3874;DHT22;1952;50.872;6.692;2022-08-18T10:58:17;25.30;11.60
3874;DHT22;1952;50.872;6.692;2022-08-18T11:01:06;25.20;4.90
3874;DHT22;1952;50.872;6.692;2022-08-18T11:03:52;25.10;6.40
3874;DHT22;1952;50.872;6.692;2022-08-18T11:06:48;25.30;1.00
3874;DHT22;1952;50.872;6.692;2022-08-18T11:09:22;25.30;3.50
3874;DHT22;1952;50.872;6.692;2022-08-18T11:11:54;25.50;1.00
3874;DHT22;1952;50.872;6.692;2022-08-18T11:14:48;25.40;1.00
3874;DHT22;1952;50.872;6.692;2022-08-18T11:17:29;25.00;14.10
3874;DHT22;1952;50.872;6.692;2022-08-18T11:20:04;24.90;21.90
3874;DHT22;1952;50.872;6.692;2022-08-18T11:22:35;24.90;24.20
3874;DHT22;1952;50.872;6.692;2022-08-18T11:25:18;25.10;8.80
3874;DHT22;1952;50.872;6.692;2022-08-18T11:30:28;25.80;1.00
3874;DHT22;1952;50.872;6.692;2022-08-18T11:33:03;26.10;1.00
3874;DHT22;1952;50.872;6.692;2022-08-18T11:35:46;25.10;1.00
3874;DHT22;1952;50.872;6.692;2022-08-18T11:41:17;26.50;1.00
3874;DHT22;1952;50.872;6.692;2022-08-18T11:43:58;26.60;1.00
3874;DHT22;1952;50.872;6.692;2022-08-18T11:46:36;26.30;1.00
3874;DHT22;1952;50.872;6.692;2022-08-18T11:49:44;26.20;1.00
3874;DHT22;1952;50.872;6.692;2022-08-18T12:46:47;24.90;16.00
3874;DHT22;1952;50.872;6.692;2022-08-18T12:52:05;25.30;1.00
3874;DHT22;1952;50.872;6.692;2022-08-18T12:54:40;25.80;1.00
3874;DHT22;1952;50.872;6.692;2022-08-18T12:57:22;26.30;1.00
3874;DHT22;1952;50.872;6.692;2022-08-18T13:00:08;26.60;1.00
3874;DHT22;1952;50.872;6.692;2022-08-18T13:05:27;27.90;99.90
3874;DHT22;1952;50.872;6.692;2022-08-18T13:08:02;28.60;1.00
3874;DHT22;1952;50.872;6.692;2022-08-18T13:10:31;29.20;99.90
3874;DHT22;1952;50.872;6.692;2022-08-18T13:13:15;29.60;1.00
3874;DHT22;1952;50.872;6.692;2022-08-18T13:15:53;30.20;1.00
3874;DHT22;1952;50.872;6.692;2022-08-18T13:18:30;30.20;99.90
3874;DHT22;1952;50.872;6.692;2022-08-18T13:20:59;30.40;99.90
3874;DHT22;1952;50.872;6.692;2022-08-18T13:23:29;30.40;99.90
3874;DHT22;1952;50.872;6.692;2022-08-18T13:26:05;30.40;99.90
3874;DHT22;1952;50.872;6.692;2022-08-18T13:28:35;30.40;99.90
3874;DHT22;1952;50.872;6.692;2022-08-18T13:31:25;30.00;99.90
3874;DHT22;1952;50.872;6.692;2022-08-18T13:33:58;30.00;99.90
3874;DHT22;1952;50.872;6.692;2022-08-18T13:36:37;30.10;99.90
3874;DHT22;1952;50.872;6.692;2022-08-18T13:39:38;30.30;99.90
3874;DHT22;1952;50.872;6.692;2022-08-18T13:42:42;30.00;99.90
3874;DHT22;1952;50.872;6.692;2022-08-18T13:45:25;30.00;99.90
3874;DHT22;1952;50.872;6.692;2022-08-18T13:48:14;31.30;99.90
3874;DHT22;1952;50.872;6.692;2022-08-18T13:53:18;29.50;99.90
3874;DHT22;1952;50.872;6.692;2022-08-18T13:55:56;29.60;99.90
3874;DHT22;1952;50.872;6.692;2022-08-18T14:01:06;29.90;99.90
3874;DHT22;1952;50.872;6.692;2022-08-18T14:04:04;30.10;99.90
3874;DHT22;1952;50.872;6.692;2022-08-18T14:06:41;30.00;99.90
3874;DHT22;1952;50.872;6.692;2022-08-18T14:09:14;30.10;99.90
3874;DHT22;1952;50.872;6.692;2022-08-18T14:12:02;30.00;99.90
3874;DHT22;1952;50.872;6.692;2022-08-18T14:14:53;30.00;99.90
3874;DHT22;1952;50.872;6.692;2022-08-18T14:17:25;29.80;99.90
3874;DHT22;1952;50.872;6.692;2022-08-18T14:20:02;30.20;99.90
3874;DHT22;1952;50.872;6.692;2022-08-18T14:22:55;30.40;99.90
3874;DHT22;1952;50.872;6.692;2022-08-18T14:25:51;30.30;99.90
3874;DHT22;1952;50.872;6.692;2022-08-18T14:31:09;29.90;99.90
3874;DHT22;1952;50.872;6.692;2022-08-18T14:36:21;29.80;99.90
3874;DHT22;1952;50.872;6.692;2022-08-18T14:43:57;29.40;99.90
3874;DHT22;1952;50.872;6.692;2022-08-18T14:51:57;28.80;99.90
3874;DHT22;1952;50.872;6.692;2022-08-18T15:02:10;29.00;99.90
3874;DHT22;1952;50.872;6.692;2022-08-18T15:27:56;29.00;99.90
3874;DHT22;1952;50.872;6.692;2022-08-18T15:37:59;29.00;99.90
3874;DHT22;1952;50.872;6.692;2022-08-18T15:53:25;28.90;99.90
3874;DHT22;1952;50.872;6.692;2022-08-18T16:06:22;28.70;99.90
3874;DHT22;1952;50.872;6.692;2022-08-18T17:32:37;25.90;1.00
3874;DHT22;1952;50.872;6.692;2022-08-18T17:37:47;25.80;1.00
3874;DHT22;1952;50.872;6.692;2022-08-18T17:50:24;25.40;1.00
3874;DHT22;1952;50.872;6.692;2022-08-18T18:35:52;24.10;1.00
3874;DHT22;1952;50.872;6.692;2022-08-18T18:38:28;24.10;1.00
3874;DHT22;1952;50.872;6.692;2022-08-18T18:41:20;23.90;1.00
3874;DHT22;1952;50.872;6.692;2022-08-18T18:44:05;23.90;1.00
3874;DHT22;1952;50.872;6.692;2022-08-18T18:46:40;23.70;1.00
3874;DHT22;1952;50.872;6.692;2022-08-18T18:49:17;23.60;1.00
3874;DHT22;1952;50.872;6.692;2022-08-18T18:51:59;23.60;1.00
3874;DHT22;1952;50.872;6.692;2022-08-18T18:54:42;23.60;1.00
3874;DHT22;1952;50.872;6.692;2022-08-18T18:57:20;23.50;1.00
3874;DHT22;1952;50.872;6.692;2022-08-18T19:00:01;23.40;3.40
3874;DHT22;1952;50.872;6.692;2022-08-18T19:02:39;23.30;9.90
3874;DHT22;1952;50.872;6.692;2022-08-18T19:05:22;23.20;12.80
3874;DHT22;1952;50.872;6.692;2022-08-18T19:08:01;23.10;19.00
3874;DHT22;1952;50.872;6.692;2022-08-18T19:10:34;23.00;23.00
3874;DHT22;1952;50.872;6.692;2022-08-18T19:13:08;23.00;23.90
3874;DHT22;1952;50.872;6.692;2022-08-18T19:16:04;22.70;27.40
3874;DHT22;1952;50.872;6.692;2022-08-18T19:18:51;22.80;30.50
3874;DHT22;1952;50.872;6.692;2022-08-18T19:21:41;22.90;31.80
3874;DHT22;1952;50.872;6.692;2022-08-18T19:24:42;22.70;34.00
3874;DHT22;1952;50.872;6.692;2022-08-18T19:27:27;22.80;36.60
3874;DHT22;1952;50.872;6.692;2022-08-18T19:30:05;22.80;34.40
3874;DHT22;1952;50.872;6.692;2022-08-18T19:32:41;22.90;34.30
3874;DHT22;1952;50.872;6.692;2022-08-18T19:35:15;22.70;36.00
3874;DHT22;1952;50.872;6.692;2022-08-18T19:37:55;22.70;43.20
3874;DHT22;1952;50.872;6.692;2022-08-18T19:40:39;22.50;46.60
3874;DHT22;1952;50.872;6.692;2022-08-18T19:43:20;22.50;49.90
3874;DHT22;1952;50.872;6.692;2022-08-18T19:45:58;22.50;51.80
3874;DHT22;1952;50.872;6.692;2022-08-18T19:48:32;22.40;56.00
3874;DHT22;1952;50.872;6.692;2022-08-18T19:51:10;22.40;59.50
3874;DHT22;1952;50.872;6.692;2022-08-18T19:53:51;22.40;58.70
3874;DHT22;1952;50.872;6.692;2022-08-18T19:56:40;22.30;61.10
3874;DHT22;1952;50.872;6.692;2022-08-18T19:59:26;22.10;67.20
3874;DHT22;1952;50.872;6.692;2022-08-18T20:05:13;21.80;85.40
3874;DHT22;1952;50.872;6.692;2022-08-18T20:11:04;21.60;93.00
3874;DHT22;1952;50.872;6.692;2022-08-18T20:13:46;21.50;95.70
3874;DHT22;1952;50.872;6.692;2022-08-18T20:16:33;21.40;97.00
3874;DHT22;1952;50.872;6.692;2022-08-18T20:19:40;21.40;98.20
3874;DHT22;1952;50.872;6.692;2022-08-18T20:22:45;21.40;97.70
3874;DHT22;1952;50.872;6.692;2022-08-18T20:25:44;21.40;98.80
3874;DHT22;1952;50.872;6.692;2022-08-18T20:28:23;21.40;99.40
3874;DHT22;1952;50.872;6.692;2022-08-18T20:31:08;21.40;97.50
3874;DHT22;1952;50.872;6.692;2022-08-18T20:33:45;21.50;96.40
3874;DHT22;1952;50.872;6.692;2022-08-18T20:36:24;21.40;98.30
3874;DHT22;1952;50.872;6.692;2022-08-18T20:38:55;21.40;98.40
3874;DHT22;1952;50.872;6.692;2022-08-18T20:44:45;21.30;99.90
3874;DHT22;1952;50.872;6.692;2022-08-18T20:47:35;21.10;99.90
3874;DHT22;1952;50.872;6.692;2022-08-18T20:50:33;20.90;99.90
3874;DHT22;1952;50.872;6.692;2022-08-18T20:53:12;20.80;99.90
3874;DHT22;1952;50.872;6.692;2022-08-18T20:55:56;20.80;99.90
3874;DHT22;1952;50.872;6.692;2022-08-18T20:58:35;20.80;99.90
3874;DHT22;1952;50.872;6.692;2022-08-18T21:03:39;21.00;99.90
3874;DHT22;1952;50.872;6.692;2022-08-18T21:06:09;21.00;99.90
3874;DHT22;1952;50.872;6.692;2022-08-18T21:08:47;21.00;99.90
3874;DHT22;1952;50.872;6.692;2022-08-18T21:11:23;20.80;99.90
3874;DHT22;1952;50.872;6.692;2022-08-18T21:16:35;20.50;99.90
3874;DHT22;1952;50.872;6.692;2022-08-18T21:19:09;20.40;99.90
3874;DHT22;1952;50.872;6.692;2022-08-18T21:21:47;20.40;99.90
3874;DHT22;1952;50.872;6.692;2022-08-18T21:24:30;20.30;99.90
3874;DHT22;1952;50.872;6.692;2022-08-18T21:27:06;20.30;99.90
3874;DHT22;1952;50.872;6.692;2022-08-18T21:29:41;20.10;99.90
3874;DHT22;1952;50.872;6.692;2022-08-18T21:32:18;20.20;99.90
3874;DHT22;1952;50.872;6.692;2022-08-18T21:34:54;20.10;99.90
3874;DHT22;1952;50.872;6.692;2022-08-18T21:39:57;20.00;99.90
3874;DHT22;1952;50.872;6.692;2022-08-18T21:42:29;19.90;99.90
3874;DHT22;1952;50.872;6.692;2022-08-18T21:45:15;19.80;99.90
3874;DHT22;1952;50.872;6.692;2022-08-18T21:47:49;19.80;99.90
3874;DHT22;1952;50.872;6.692;2022-08-18T21:50:26;19.90;99.90
3874;DHT22;1952;50.872;6.692;2022-08-18T21:52:56;19.90;99.90
3874;DHT22;1952;50.872;6.692;2022-08-18T21:55:28;20.10;99.90
3874;DHT22;1952;50.872;6.692;2022-08-18T21:58:06;20.10;99.90
3874;DHT22;1952;50.872;6.692;2022-08-18T22:00:35;20.00;99.90
3874;DHT22;1952;50.872;6.692;2022-08-18T22:03:21;19.90;99.90
3874;DHT22;1952;50.872;6.692;2022-08-18T22:05:59;19.90;99.90
3874;DHT22;1952;50.872;6.692;2022-08-18T22:08:47;19.80;99.90
3874;DHT22;1952;50.872;6.692;2022-08-18T22:11:26;19.70;99.90
3874;DHT22;1952;50.872;6.692;2022-08-18T22:14:30;19.70;99.90
3874;DHT22;1952;50.872;6.692;2022-08-18T22:17:33;19.70;99.90
3874;DHT22;1952;50.872;6.692;2022-08-18T22:26:27;19.70;99.90
3874;DHT22;1952;50.872;6.692;2022-08-18T22:29:09;19.70;99.90
3874;DHT22;1952;50.872;6.692;2022-08-18T22:31:45;19.60;99.90
3874;DHT22;1952;50.872;6.692;2022-08-18T22:34:16;19.30;99.90
3874;DHT22;1952;50.872;6.692;2022-08-18T22:36:55;19.20;99.90
3874;DHT22;1952;50.872;6.692;2022-08-18T22:39:30;19.20;99.90
3874;DHT22;1952;50.872;6.692;2022-08-18T22:42:01;19.10;99.90
3874;DHT22;1952;50.872;6.692;2022-08-18T22:52:06;19.40;99.90
3874;DHT22;1952;50.872;6.692;2022-08-18T22:54:42;19.50;99.90
3874;DHT22;1952;50.872;6.692;2022-08-18T23:02:12;19.30;99.90
3874;DHT22;1952;50.872;6.692;2022-08-18T23:09:49;19.10;99.90
3874;DHT22;1952;50.872;6.692;2022-08-18T23:15:24;18.80;99.90
3874;DHT22;1952;50.872;6.692;2022-08-18T23:25:36;18.20;99.90
3874;DHT22;1952;50.872;6.692;2022-08-18T23:30:39;18.50;99.90
3874;DHT22;1952;50.872;6.692;2022-08-18T23:35:44;18.50;99.90
3874;DHT22;1952;50.872;6.692;2022-08-18T23:38:14;18.40;99.90
3874;DHT22;1952;50.872;6.692;2022-08-18T23:40:47;18.30;99.90
3874;DHT22;1952;50.872;6.692;2022-08-18T23:48:18;18.60;99.90
3874;DHT22;1952;50.872;6.692;2022-08-18T23:50:48;18.70;99.90
